sensor_id;sensor_type;location;lat;lon;timestamp;P1;durP1;ratioP1;P2;durP2;ratioP2
59040;SDS011;44825;53.200;6.448;2022-09-09T00:01:54;8.88;;;5.28;;
59040;SDS011;44825;53.200;6.448;2022-09-09T00:04:28;9.55;;;6.05;;
59040;SDS011;44825;53.200;6.448;2022-09-09T00:06:59;7.80;;;5.82;;
59040;SDS011;44825;53.200;6.448;2022-09-09T00:09:33;8.30;;;5.40;;
59040;SDS011;44825;53.200;6.448;2022-09-09T00:12:10;8.75;;;5.95;;
59040;SDS011;44825;53.200;6.448;2022-09-09T00:14:41;10.88;;;6.03;;
59040;SDS011;44825;53.200;6.448;2022-09-09T00:17:14;12.60;;;7.10;;
59040;SDS011;44825;53.200;6.448;2022-09-09T00:19:50;9.30;;;5.72;;
59040;SDS011;44825;53.200;6.448;2022-09-09T00:22:23;9.07;;;6.10;;
59040;SDS011;44825;53.200;6.448;2022-09-09T00:24:55;9.80;;;6.25;;
59040;SDS011;44825;53.200;6.448;2022-09-09T00:27:37;9.93;;;6.85;;
59040;SDS011;44825;53.200;6.448;2022-09-09T00:30:15;13.98;;;6.35;;
59040;SDS011;44825;53.200;6.448;2022-09-09T00:32:45;10.65;;;6.95;;
59040;SDS011;44825;53.200;6.448;2022-09-09T00:35:17;9.25;;;6.38;;
59040;SDS011;44825;53.200;6.448;2022-09-09T00:37:50;11.13;;;6.25;;
59040;SDS011;44825;53.200;6.448;2022-09-09T00:40:25;8.30;;;5.78;;
59040;SDS011;44825;53.200;6.448;2022-09-09T00:43:03;9.27;;;6.32;;
59040;SDS011;44825;53.200;6.448;2022-09-09T00:45:48;9.75;;;5.78;;
59040;SDS011;44825;53.200;6.448;2022-09-09T00:48:42;11.82;;;6.43;;
59040;SDS011;44825;53.200;6.448;2022-09-09T00:51:19;12.13;;;6.38;;
59040;SDS011;44825;53.200;6.448;2022-09-09T00:53:59;9.57;;;6.03;;
59040;SDS011;44825;53.200;6.448;2022-09-09T00:56:46;8.35;;;6.45;;
59040;SDS011;44825;53.200;6.448;2022-09-09T00:59:25;11.18;;;7.07;;
59040;SDS011;44825;53.200;6.448;2022-09-09T01:02:02;13.23;;;7.03;;
59040;SDS011;44825;53.200;6.448;2022-09-09T01:07:04;8.82;;;5.72;;
59040;SDS011;44825;53.200;6.448;2022-09-09T01:09:38;8.80;;;6.13;;
59040;SDS011;44825;53.200;6.448;2022-09-09T01:12:14;10.32;;;5.75;;
59040;SDS011;44825;53.200;6.448;2022-09-09T01:14:44;9.98;;;6.47;;
59040;SDS011;44825;53.200;6.448;2022-09-09T01:17:15;10.60;;;5.57;;
59040;SDS011;44825;53.200;6.448;2022-09-09T01:19:50;10.95;;;6.18;;
59040;SDS011;44825;53.200;6.448;2022-09-09T01:22:29;7.38;;;5.07;;
59040;SDS011;44825;53.200;6.448;2022-09-09T01:25:15;11.38;;;5.10;;
59040;SDS011;44825;53.200;6.448;2022-09-09T01:27:53;12.88;;;6.25;;
59040;SDS011;44825;53.200;6.448;2022-09-09T01:30:23;9.07;;;5.30;;
59040;SDS011;44825;53.200;6.448;2022-09-09T01:32:53;11.93;;;6.32;;
59040;SDS011;44825;53.200;6.448;2022-09-09T01:35:29;9.30;;;4.93;;
59040;SDS011;44825;53.200;6.448;2022-09-09T01:38:01;9.80;;;5.13;;
59040;SDS011;44825;53.200;6.448;2022-09-09T01:40:28;8.10;;;4.82;;
59040;SDS011;44825;53.200;6.448;2022-09-09T01:42:57;10.30;;;4.88;;
59040;SDS011;44825;53.200;6.448;2022-09-09T01:45:25;8.32;;;4.68;;
59040;SDS011;44825;53.200;6.448;2022-09-09T01:47:52;14.15;;;4.85;;
59040;SDS011;44825;53.200;6.448;2022-09-09T01:50:20;8.57;;;4.82;;
59040;SDS011;44825;53.200;6.448;2022-09-09T01:52:49;9.18;;;5.20;;
59040;SDS011;44825;53.200;6.448;2022-09-09T01:55:22;6.17;;;4.03;;
59040;SDS011;44825;53.200;6.448;2022-09-09T01:57:56;10.80;;;5.45;;
59040;SDS011;44825;53.200;6.448;2022-09-09T02:00:35;9.23;;;4.95;;
59040;SDS011;44825;53.200;6.448;2022-09-09T02:03:08;8.35;;;4.90;;
59040;SDS011;44825;53.200;6.448;2022-09-09T02:05:48;11.98;;;5.20;;
59040;SDS011;44825;53.200;6.448;2022-09-09T02:08:23;15.73;;;5.15;;
59040;SDS011;44825;53.200;6.448;2022-09-09T02:10:55;11.38;;;5.20;;
59040;SDS011;44825;53.200;6.448;2022-09-09T02:13:29;8.02;;;5.30;;
59040;SDS011;44825;53.200;6.448;2022-09-09T02:16:02;9.35;;;5.45;;
59040;SDS011;44825;53.200;6.448;2022-09-09T02:18:34;8.75;;;5.60;;
59040;SDS011;44825;53.200;6.448;2022-09-09T02:21:05;9.00;;;5.93;;
59040;SDS011;44825;53.200;6.448;2022-09-09T02:23:36;9.48;;;5.93;;
59040;SDS011;44825;53.200;6.448;2022-09-09T02:26:05;9.43;;;5.55;;
59040;SDS011;44825;53.200;6.448;2022-09-09T02:28:35;10.43;;;6.45;;
59040;SDS011;44825;53.200;6.448;2022-09-09T02:31:05;12.10;;;6.50;;
59040;SDS011;44825;53.200;6.448;2022-09-09T02:33:33;10.32;;;7.20;;
59040;SDS011;44825;53.200;6.448;2022-09-09T02:38:36;11.07;;;5.82;;
59040;SDS011;44825;53.200;6.448;2022-09-09T02:41:08;12.25;;;6.22;;
59040;SDS011;44825;53.200;6.448;2022-09-09T02:43:37;11.23;;;6.43;;
59040;SDS011;44825;53.200;6.448;2022-09-09T02:46:07;11.95;;;6.65;;
59040;SDS011;44825;53.200;6.448;2022-09-09T02:48:44;10.90;;;7.10;;
59040;SDS011;44825;53.200;6.448;2022-09-09T02:51:21;10.20;;;6.57;;
59040;SDS011;44825;53.200;6.448;2022-09-09T02:53:57;12.50;;;7.07;;
59040;SDS011;44825;53.200;6.448;2022-09-09T02:56:31;10.93;;;6.78;;
59040;SDS011;44825;53.200;6.448;2022-09-09T02:59:04;10.35;;;6.80;;
59040;SDS011;44825;53.200;6.448;2022-09-09T03:01:32;10.38;;;6.25;;
59040;SDS011;44825;53.200;6.448;2022-09-09T03:04:01;12.48;;;7.38;;
59040;SDS011;44825;53.200;6.448;2022-09-09T03:06:30;11.95;;;7.07;;
59040;SDS011;44825;53.200;6.448;2022-09-09T03:08:57;10.93;;;6.43;;
59040;SDS011;44825;53.200;6.448;2022-09-09T03:11:27;10.70;;;6.30;;
59040;SDS011;44825;53.200;6.448;2022-09-09T03:13:55;14.68;;;7.95;;
59040;SDS011;44825;53.200;6.448;2022-09-09T03:16:23;9.90;;;6.53;;
59040;SDS011;44825;53.200;6.448;2022-09-09T03:18:51;8.82;;;6.45;;
59040;SDS011;44825;53.200;6.448;2022-09-09T03:21:18;13.27;;;7.50;;
59040;SDS011;44825;53.200;6.448;2022-09-09T03:23:45;12.35;;;6.40;;
59040;SDS011;44825;53.200;6.448;2022-09-09T03:26:13;12.32;;;6.85;;
59040;SDS011;44825;53.200;6.448;2022-09-09T03:28:41;11.40;;;7.38;;
59040;SDS011;44825;53.200;6.448;2022-09-09T03:31:08;10.75;;;6.53;;
59040;SDS011;44825;53.200;6.448;2022-09-09T03:33:38;11.23;;;6.70;;
59040;SDS011;44825;53.200;6.448;2022-09-09T03:36:06;10.63;;;6.20;;
59040;SDS011;44825;53.200;6.448;2022-09-09T03:38:35;8.88;;;5.32;;
59040;SDS011;44825;53.200;6.448;2022-09-09T03:41:02;9.40;;;5.00;;
59040;SDS011;44825;53.200;6.448;2022-09-09T03:43:33;8.50;;;4.85;;
59040;SDS011;44825;53.200;6.448;2022-09-09T03:46:01;9.27;;;4.60;;
59040;SDS011;44825;53.200;6.448;2022-09-09T03:48:29;22.02;;;5.50;;
59040;SDS011;44825;53.200;6.448;2022-09-09T03:50:58;8.48;;;4.18;;
59040;SDS011;44825;53.200;6.448;2022-09-09T03:53:26;6.97;;;4.05;;
59040;SDS011;44825;53.200;6.448;2022-09-09T03:55:56;8.48;;;4.20;;
59040;SDS011;44825;53.200;6.448;2022-09-09T03:58:25;12.63;;;4.80;;
59040;SDS011;44825;53.200;6.448;2022-09-09T04:00:54;7.45;;;3.75;;
59040;SDS011;44825;53.200;6.448;2022-09-09T04:03:22;12.00;;;3.80;;
59040;SDS011;44825;53.200;6.448;2022-09-09T04:05:51;6.55;;;4.15;;
59040;SDS011;44825;53.200;6.448;2022-09-09T04:08:20;7.07;;;3.55;;
59040;SDS011;44825;53.200;6.448;2022-09-09T04:10:49;8.90;;;4.20;;
59040;SDS011;44825;53.200;6.448;2022-09-09T04:13:17;9.63;;;4.72;;
59040;SDS011;44825;53.200;6.448;2022-09-09T04:15:50;8.77;;;4.28;;
59040;SDS011;44825;53.200;6.448;2022-09-09T04:18:17;9.98;;;3.75;;
59040;SDS011;44825;53.200;6.448;2022-09-09T04:20:46;6.97;;;3.88;;
59040;SDS011;44825;53.200;6.448;2022-09-09T04:23:14;7.80;;;3.92;;
59040;SDS011;44825;53.200;6.448;2022-09-09T04:25:46;11.65;;;4.45;;
59040;SDS011;44825;53.200;6.448;2022-09-09T04:28:14;9.05;;;4.10;;
59040;SDS011;44825;53.200;6.448;2022-09-09T04:30:41;9.68;;;4.15;;
59040;SDS011;44825;53.200;6.448;2022-09-09T04:33:10;7.32;;;3.92;;
59040;SDS011;44825;53.200;6.448;2022-09-09T04:35:38;7.35;;;3.72;;
59040;SDS011;44825;53.200;6.448;2022-09-09T04:38:06;9.35;;;4.13;;
59040;SDS011;44825;53.200;6.448;2022-09-09T04:40:34;8.10;;;4.38;;
59040;SDS011;44825;53.200;6.448;2022-09-09T04:43:03;9.80;;;4.30;;
59040;SDS011;44825;53.200;6.448;2022-09-09T04:45:31;8.93;;;4.40;;
59040;SDS011;44825;53.200;6.448;2022-09-09T04:47:59;7.53;;;4.22;;
59040;SDS011;44825;53.200;6.448;2022-09-09T04:50:26;8.75;;;4.55;;
59040;SDS011;44825;53.200;6.448;2022-09-09T04:52:54;7.15;;;3.83;;
59040;SDS011;44825;53.200;6.448;2022-09-09T04:55:21;8.57;;;4.35;;
59040;SDS011;44825;53.200;6.448;2022-09-09T04:57:48;12.57;;;4.03;;
59040;SDS011;44825;53.200;6.448;2022-09-09T05:00:17;7.43;;;3.60;;
59040;SDS011;44825;53.200;6.448;2022-09-09T05:02:44;7.72;;;4.68;;
59040;SDS011;44825;53.200;6.448;2022-09-09T05:05:13;8.00;;;4.22;;
59040;SDS011;44825;53.200;6.448;2022-09-09T05:07:40;10.98;;;4.25;;
59040;SDS011;44825;53.200;6.448;2022-09-09T05:10:09;9.30;;;4.95;;
59040;SDS011;44825;53.200;6.448;2022-09-09T05:12:36;8.10;;;4.53;;
59040;SDS011;44825;53.200;6.448;2022-09-09T05:15:03;10.00;;;4.40;;
59040;SDS011;44825;53.200;6.448;2022-09-09T05:17:33;10.82;;;4.70;;
59040;SDS011;44825;53.200;6.448;2022-09-09T05:20:01;9.20;;;4.18;;
59040;SDS011;44825;53.200;6.448;2022-09-09T05:22:29;9.30;;;4.60;;
59040;SDS011;44825;53.200;6.448;2022-09-09T05:24:56;7.20;;;4.43;;
59040;SDS011;44825;53.200;6.448;2022-09-09T05:27:24;9.15;;;4.65;;
59040;SDS011;44825;53.200;6.448;2022-09-09T05:29:51;9.48;;;5.03;;
59040;SDS011;44825;53.200;6.448;2022-09-09T05:32:18;11.02;;;5.90;;
59040;SDS011;44825;53.200;6.448;2022-09-09T05:34:47;11.98;;;5.80;;
59040;SDS011;44825;53.200;6.448;2022-09-09T05:37:14;9.00;;;5.53;;
59040;SDS011;44825;53.200;6.448;2022-09-09T05:39:42;11.70;;;6.10;;
59040;SDS011;44825;53.200;6.448;2022-09-09T05:42:09;11.95;;;6.40;;
59040;SDS011;44825;53.200;6.448;2022-09-09T05:44:36;10.75;;;6.20;;
59040;SDS011;44825;53.200;6.448;2022-09-09T05:47:04;11.20;;;6.30;;
59040;SDS011;44825;53.200;6.448;2022-09-09T05:49:31;9.05;;;5.70;;
59040;SDS011;44825;53.200;6.448;2022-09-09T05:52:00;12.98;;;7.05;;
59040;SDS011;44825;53.200;6.448;2022-09-09T05:54:29;12.00;;;7.05;;
59040;SDS011;44825;53.200;6.448;2022-09-09T05:56:58;15.23;;;8.15;;
59040;SDS011;44825;53.200;6.448;2022-09-09T05:59:25;10.30;;;6.60;;
59040;SDS011;44825;53.200;6.448;2022-09-09T06:01:53;10.05;;;5.90;;
59040;SDS011;44825;53.200;6.448;2022-09-09T06:04:21;13.15;;;6.88;;
59040;SDS011;44825;53.200;6.448;2022-09-09T06:06:49;9.02;;;6.18;;
59040;SDS011;44825;53.200;6.448;2022-09-09T06:09:18;8.90;;;6.30;;
59040;SDS011;44825;53.200;6.448;2022-09-09T06:11:45;10.40;;;6.10;;
59040;SDS011;44825;53.200;6.448;2022-09-09T06:14:13;12.88;;;6.78;;
59040;SDS011;44825;53.200;6.448;2022-09-09T06:16:40;10.68;;;5.97;;
59040;SDS011;44825;53.200;6.448;2022-09-09T06:19:09;10.35;;;6.78;;
59040;SDS011;44825;53.200;6.448;2022-09-09T06:21:37;9.98;;;7.10;;
59040;SDS011;44825;53.200;6.448;2022-09-09T06:24:05;9.23;;;5.70;;
59040;SDS011;44825;53.200;6.448;2022-09-09T06:26:35;8.73;;;5.68;;
59040;SDS011;44825;53.200;6.448;2022-09-09T06:29:06;9.43;;;5.97;;
59040;SDS011;44825;53.200;6.448;2022-09-09T06:31:34;10.70;;;6.45;;
59040;SDS011;44825;53.200;6.448;2022-09-09T06:34:04;10.48;;;6.60;;
59040;SDS011;44825;53.200;6.448;2022-09-09T06:36:33;9.02;;;6.28;;
59040;SDS011;44825;53.200;6.448;2022-09-09T06:39:02;9.63;;;6.15;;
59040;SDS011;44825;53.200;6.448;2022-09-09T06:41:30;9.57;;;5.95;;
59040;SDS011;44825;53.200;6.448;2022-09-09T06:44:00;9.65;;;6.43;;
59040;SDS011;44825;53.200;6.448;2022-09-09T06:46:29;9.48;;;6.25;;
59040;SDS011;44825;53.200;6.448;2022-09-09T06:48:58;11.48;;;6.22;;
59040;SDS011;44825;53.200;6.448;2022-09-09T06:51:27;12.13;;;5.90;;
59040;SDS011;44825;53.200;6.448;2022-09-09T06:53:56;8.00;;;5.40;;
59040;SDS011;44825;53.200;6.448;2022-09-09T06:56:25;10.77;;;5.68;;
59040;SDS011;44825;53.200;6.448;2022-09-09T06:58:54;10.13;;;5.85;;
59040;SDS011;44825;53.200;6.448;2022-09-09T07:01:25;10.00;;;5.82;;
59040;SDS011;44825;53.200;6.448;2022-09-09T07:03:56;9.05;;;5.28;;
59040;SDS011;44825;53.200;6.448;2022-09-09T07:06:25;8.93;;;6.05;;
59040;SDS011;44825;53.200;6.448;2022-09-09T07:08:54;12.75;;;6.40;;
59040;SDS011;44825;53.200;6.448;2022-09-09T07:11:23;9.68;;;5.30;;
59040;SDS011;44825;53.200;6.448;2022-09-09T07:13:52;8.65;;;6.05;;
59040;SDS011;44825;53.200;6.448;2022-09-09T07:16:20;8.98;;;5.72;;
59040;SDS011;44825;53.200;6.448;2022-09-09T07:18:51;11.98;;;6.18;;
59040;SDS011;44825;53.200;6.448;2022-09-09T07:21:23;9.23;;;5.43;;
59040;SDS011;44825;53.200;6.448;2022-09-09T07:23:52;7.18;;;4.97;;
59040;SDS011;44825;53.200;6.448;2022-09-09T07:26:20;7.60;;;5.40;;
59040;SDS011;44825;53.200;6.448;2022-09-09T07:28:49;10.73;;;5.80;;
59040;SDS011;44825;53.200;6.448;2022-09-09T07:31:18;9.73;;;5.13;;
59040;SDS011;44825;53.200;6.448;2022-09-09T07:33:47;9.63;;;5.05;;
59040;SDS011;44825;53.200;6.448;2022-09-09T07:36:17;8.00;;;5.38;;
59040;SDS011;44825;53.200;6.448;2022-09-09T07:38:47;7.55;;;5.32;;
59040;SDS011;44825;53.200;6.448;2022-09-09T07:41:17;7.78;;;5.18;;
59040;SDS011;44825;53.200;6.448;2022-09-09T07:43:47;8.32;;;5.25;;
59040;SDS011;44825;53.200;6.448;2022-09-09T07:46:16;10.45;;;6.75;;
59040;SDS011;44825;53.200;6.448;2022-09-09T07:48:45;9.48;;;4.95;;
59040;SDS011;44825;53.200;6.448;2022-09-09T07:51:18;9.70;;;5.95;;
59040;SDS011;44825;53.200;6.448;2022-09-09T07:53:47;10.23;;;5.70;;
59040;SDS011;44825;53.200;6.448;2022-09-09T07:56:18;13.15;;;6.13;;
59040;SDS011;44825;53.200;6.448;2022-09-09T07:58:47;10.63;;;5.78;;
59040;SDS011;44825;53.200;6.448;2022-09-09T08:01:16;8.73;;;4.32;;
59040;SDS011;44825;53.200;6.448;2022-09-09T08:03:44;11.57;;;4.93;;
59040;SDS011;44825;53.200;6.448;2022-09-09T08:06:13;10.70;;;5.20;;
59040;SDS011;44825;53.200;6.448;2022-09-09T08:08:42;9.77;;;4.88;;
59040;SDS011;44825;53.200;6.448;2022-09-09T08:11:10;8.63;;;4.85;;
59040;SDS011;44825;53.200;6.448;2022-09-09T08:13:40;8.30;;;4.57;;
59040;SDS011;44825;53.200;6.448;2022-09-09T08:16:10;8.20;;;5.55;;
59040;SDS011;44825;53.200;6.448;2022-09-09T08:18:38;11.00;;;4.60;;
59040;SDS011;44825;53.200;6.448;2022-09-09T08:21:07;9.32;;;5.00;;
59040;SDS011;44825;53.200;6.448;2022-09-09T08:23:37;7.40;;;4.53;;
59040;SDS011;44825;53.200;6.448;2022-09-09T08:26:07;7.85;;;4.85;;
59040;SDS011;44825;53.200;6.448;2022-09-09T08:28:37;8.65;;;5.00;;
59040;SDS011;44825;53.200;6.448;2022-09-09T08:31:06;15.45;;;5.53;;
59040;SDS011;44825;53.200;6.448;2022-09-09T08:33:37;10.30;;;4.77;;
59040;SDS011;44825;53.200;6.448;2022-09-09T08:36:05;8.63;;;4.82;;
59040;SDS011;44825;53.200;6.448;2022-09-09T08:38:35;9.82;;;4.53;;
59040;SDS011;44825;53.200;6.448;2022-09-09T08:41:14;7.13;;;4.32;;
59040;SDS011;44825;53.200;6.448;2022-09-09T08:44:00;7.88;;;3.97;;
59040;SDS011;44825;53.200;6.448;2022-09-09T08:49:04;8.73;;;4.03;;
59040;SDS011;44825;53.200;6.448;2022-09-09T08:51:40;8.65;;;4.90;;
59040;SDS011;44825;53.200;6.448;2022-09-09T08:54:07;8.52;;;4.00;;
59040;SDS011;44825;53.200;6.448;2022-09-09T08:56:37;7.75;;;3.95;;
59040;SDS011;44825;53.200;6.448;2022-09-09T08:59:05;8.73;;;4.22;;
59040;SDS011;44825;53.200;6.448;2022-09-09T09:01:38;9.27;;;4.20;;
59040;SDS011;44825;53.200;6.448;2022-09-09T09:04:14;9.90;;;3.88;;
59040;SDS011;44825;53.200;6.448;2022-09-09T09:06:54;8.13;;;4.00;;
59040;SDS011;44825;53.200;6.448;2022-09-09T09:09:32;8.27;;;4.30;;
59040;SDS011;44825;53.200;6.448;2022-09-09T09:12:14;6.38;;;3.50;;
59040;SDS011;44825;53.200;6.448;2022-09-09T09:14:45;6.72;;;3.42;;
59040;SDS011;44825;53.200;6.448;2022-09-09T09:17:14;8.05;;;3.35;;
59040;SDS011;44825;53.200;6.448;2022-09-09T09:19:46;8.95;;;3.75;;
59040;SDS011;44825;53.200;6.448;2022-09-09T09:22:16;8.65;;;3.72;;
59040;SDS011;44825;53.200;6.448;2022-09-09T09:24:51;7.60;;;3.50;;
59040;SDS011;44825;53.200;6.448;2022-09-09T09:27:27;7.32;;;3.35;;
59040;SDS011;44825;53.200;6.448;2022-09-09T09:29:59;6.70;;;3.08;;
59040;SDS011;44825;53.200;6.448;2022-09-09T09:32:30;9.30;;;3.92;;
59040;SDS011;44825;53.200;6.448;2022-09-09T09:35:02;13.27;;;3.75;;
59040;SDS011;44825;53.200;6.448;2022-09-09T09:37:36;7.57;;;2.95;;
59040;SDS011;44825;53.200;6.448;2022-09-09T09:40:13;10.35;;;3.08;;
59040;SDS011;44825;53.200;6.448;2022-09-09T09:42:48;9.70;;;3.55;;
59040;SDS011;44825;53.200;6.448;2022-09-09T09:45:20;10.48;;;2.78;;
59040;SDS011;44825;53.200;6.448;2022-09-09T09:47:58;11.05;;;2.97;;
59040;SDS011;44825;53.200;6.448;2022-09-09T09:50:27;10.25;;;2.80;;
59040;SDS011;44825;53.200;6.448;2022-09-09T09:52:55;7.57;;;2.72;;
59040;SDS011;44825;53.200;6.448;2022-09-09T09:55:24;9.82;;;2.83;;
59040;SDS011;44825;53.200;6.448;2022-09-09T09:57:54;11.15;;;3.25;;
59040;SDS011;44825;53.200;6.448;2022-09-09T10:00:29;10.05;;;2.30;;
59040;SDS011;44825;53.200;6.448;2022-09-09T10:02:56;9.10;;;3.00;;
59040;SDS011;44825;53.200;6.448;2022-09-09T10:05:26;8.77;;;2.38;;
59040;SDS011;44825;53.200;6.448;2022-09-09T10:08:02;9.15;;;2.97;;
59040;SDS011;44825;53.200;6.448;2022-09-09T10:10:34;9.75;;;3.00;;
59040;SDS011;44825;53.200;6.448;2022-09-09T10:13:11;9.48;;;2.65;;
59040;SDS011;44825;53.200;6.448;2022-09-09T10:15:47;7.55;;;2.30;;
59040;SDS011;44825;53.200;6.448;2022-09-09T10:18:23;11.40;;;2.90;;
59040;SDS011;44825;53.200;6.448;2022-09-09T10:21:03;7.03;;;2.25;;
59040;SDS011;44825;53.200;6.448;2022-09-09T10:23:46;12.25;;;3.17;;
59040;SDS011;44825;53.200;6.448;2022-09-09T10:26:32;10.00;;;2.90;;
59040;SDS011;44825;53.200;6.448;2022-09-09T10:29:14;8.60;;;2.80;;
59040;SDS011;44825;53.200;6.448;2022-09-09T10:32:02;7.18;;;2.47;;
59040;SDS011;44825;53.200;6.448;2022-09-09T10:34:46;9.38;;;2.45;;
59040;SDS011;44825;53.200;6.448;2022-09-09T10:37:25;12.40;;;2.78;;
59040;SDS011;44825;53.200;6.448;2022-09-09T10:40:04;8.60;;;2.38;;
59040;SDS011;44825;53.200;6.448;2022-09-09T10:42:47;10.32;;;2.63;;
59040;SDS011;44825;53.200;6.448;2022-09-09T10:45:17;6.75;;;1.80;;
59040;SDS011;44825;53.200;6.448;2022-09-09T10:48:00;6.72;;;1.90;;
59040;SDS011;44825;53.200;6.448;2022-09-09T10:50:44;8.40;;;2.17;;
59040;SDS011;44825;53.200;6.448;2022-09-09T10:53:21;9.05;;;1.85;;
59040;SDS011;44825;53.200;6.448;2022-09-09T10:55:58;10.48;;;2.22;;
59040;SDS011;44825;53.200;6.448;2022-09-09T10:58:30;8.00;;;1.80;;
59040;SDS011;44825;53.200;6.448;2022-09-09T11:01:08;8.02;;;1.77;;
59040;SDS011;44825;53.200;6.448;2022-09-09T11:03:42;6.60;;;2.20;;
59040;SDS011;44825;53.200;6.448;2022-09-09T11:06:13;10.98;;;2.50;;
59040;SDS011;44825;53.200;6.448;2022-09-09T11:08:45;7.20;;;2.28;;
59040;SDS011;44825;53.200;6.448;2022-09-09T11:11:13;8.88;;;1.65;;
59040;SDS011;44825;53.200;6.448;2022-09-09T11:13:47;6.65;;;1.83;;
59040;SDS011;44825;53.200;6.448;2022-09-09T11:16:23;7.18;;;2.03;;
59040;SDS011;44825;53.200;6.448;2022-09-09T11:18:56;7.70;;;1.98;;
59040;SDS011;44825;53.200;6.448;2022-09-09T11:21:29;9.07;;;2.10;;
59040;SDS011;44825;53.200;6.448;2022-09-09T11:24:01;6.03;;;1.77;;
59040;SDS011;44825;53.200;6.448;2022-09-09T11:26:36;8.10;;;1.80;;
59040;SDS011;44825;53.200;6.448;2022-09-09T11:29:15;10.48;;;2.17;;
59040;SDS011;44825;53.200;6.448;2022-09-09T11:32:03;6.45;;;2.03;;
59040;SDS011;44825;53.200;6.448;2022-09-09T11:34:42;7.25;;;2.03;;
59040;SDS011;44825;53.200;6.448;2022-09-09T11:37:25;7.60;;;1.70;;
59040;SDS011;44825;53.200;6.448;2022-09-09T11:40:14;5.63;;;1.48;;
59040;SDS011;44825;53.200;6.448;2022-09-09T11:42:45;7.35;;;1.67;;
59040;SDS011;44825;53.200;6.448;2022-09-09T11:45:19;6.22;;;1.40;;
59040;SDS011;44825;53.200;6.448;2022-09-09T11:47:53;5.40;;;1.40;;
59040;SDS011;44825;53.200;6.448;2022-09-09T11:50:28;6.85;;;1.50;;
59040;SDS011;44825;53.200;6.448;2022-09-09T11:53:20;6.28;;;1.73;;
59040;SDS011;44825;53.200;6.448;2022-09-09T11:56:02;8.85;;;1.85;;
59040;SDS011;44825;53.200;6.448;2022-09-09T11:58:38;7.53;;;1.42;;
59040;SDS011;44825;53.200;6.448;2022-09-09T12:03:43;6.65;;;1.60;;
59040;SDS011;44825;53.200;6.448;2022-09-09T12:06:15;7.45;;;1.58;;
59040;SDS011;44825;53.200;6.448;2022-09-09T12:08:48;6.70;;;1.30;;
59040;SDS011;44825;53.200;6.448;2022-09-09T12:11:24;6.30;;;1.98;;
59040;SDS011;44825;53.200;6.448;2022-09-09T12:13:53;7.88;;;1.40;;
59040;SDS011;44825;53.200;6.448;2022-09-09T12:16:28;6.80;;;1.65;;
59040;SDS011;44825;53.200;6.448;2022-09-09T12:19:05;7.20;;;1.60;;
59040;SDS011;44825;53.200;6.448;2022-09-09T12:21:41;8.18;;;1.88;;
59040;SDS011;44825;53.200;6.448;2022-09-09T12:24:15;5.50;;;1.38;;
59040;SDS011;44825;53.200;6.448;2022-09-09T12:26:52;9.45;;;1.85;;
59040;SDS011;44825;53.200;6.448;2022-09-09T12:29:26;7.95;;;2.13;;
59040;SDS011;44825;53.200;6.448;2022-09-09T12:32:02;6.82;;;1.70;;
59040;SDS011;44825;53.200;6.448;2022-09-09T12:34:36;5.78;;;1.55;;
59040;SDS011;44825;53.200;6.448;2022-09-09T12:37:13;7.45;;;1.70;;
59040;SDS011;44825;53.200;6.448;2022-09-09T12:39:45;6.97;;;1.40;;
59040;SDS011;44825;53.200;6.448;2022-09-09T12:42:17;5.20;;;1.23;;
59040;SDS011;44825;53.200;6.448;2022-09-09T12:44:52;11.98;;;1.90;;
59040;SDS011;44825;53.200;6.448;2022-09-09T12:47:21;8.90;;;1.95;;
59040;SDS011;44825;53.200;6.448;2022-09-09T12:50:00;6.82;;;1.70;;
59040;SDS011;44825;53.200;6.448;2022-09-09T12:52:28;6.50;;;1.60;;
59040;SDS011;44825;53.200;6.448;2022-09-09T12:54:59;7.85;;;1.70;;
59040;SDS011;44825;53.200;6.448;2022-09-09T12:57:30;9.30;;;1.98;;
59040;SDS011;44825;53.200;6.448;2022-09-09T13:00:07;5.93;;;1.40;;
59040;SDS011;44825;53.200;6.448;2022-09-09T13:02:47;6.55;;;1.83;;
59040;SDS011;44825;53.200;6.448;2022-09-09T13:05:19;7.75;;;1.27;;
59040;SDS011;44825;53.200;6.448;2022-09-09T13:07:48;4.40;;;1.63;;
59040;SDS011;44825;53.200;6.448;2022-09-09T13:10:20;7.15;;;1.45;;
59040;SDS011;44825;53.200;6.448;2022-09-09T13:12:52;4.22;;;1.27;;
59040;SDS011;44825;53.200;6.448;2022-09-09T13:15:21;8.15;;;1.60;;
59040;SDS011;44825;53.200;6.448;2022-09-09T13:17:52;6.88;;;1.40;;
59040;SDS011;44825;53.200;6.448;2022-09-09T13:20:24;4.97;;;1.10;;
59040;SDS011;44825;53.200;6.448;2022-09-09T13:22:52;5.20;;;1.25;;
59040;SDS011;44825;53.200;6.448;2022-09-09T13:25:22;8.68;;;1.77;;
59040;SDS011;44825;53.200;6.448;2022-09-09T13:27:58;6.53;;;1.05;;
59040;SDS011;44825;53.200;6.448;2022-09-09T13:30:28;5.75;;;1.23;;
59040;SDS011;44825;53.200;6.448;2022-09-09T13:33:01;5.93;;;1.15;;
59040;SDS011;44825;53.200;6.448;2022-09-09T13:35:49;4.85;;;1.42;;
59040;SDS011;44825;53.200;6.448;2022-09-09T13:38:18;7.68;;;1.77;;
59040;SDS011;44825;53.200;6.448;2022-09-09T13:40:56;5.40;;;1.25;;
59040;SDS011;44825;53.200;6.448;2022-09-09T13:43:27;6.75;;;1.30;;
59040;SDS011;44825;53.200;6.448;2022-09-09T13:45:56;5.88;;;1.38;;
59040;SDS011;44825;53.200;6.448;2022-09-09T13:48:26;8.75;;;1.70;;
59040;SDS011;44825;53.200;6.448;2022-09-09T13:51:00;7.30;;;1.48;;
59040;SDS011;44825;53.200;6.448;2022-09-09T13:53:30;6.32;;;1.40;;
59040;SDS011;44825;53.200;6.448;2022-09-09T13:55:58;5.70;;;1.30;;
59040;SDS011;44825;53.200;6.448;2022-09-09T13:58:26;8.30;;;1.98;;
59040;SDS011;44825;53.200;6.448;2022-09-09T14:00:54;8.43;;;1.88;;
59040;SDS011;44825;53.200;6.448;2022-09-09T14:03:22;5.20;;;1.30;;
59040;SDS011;44825;53.200;6.448;2022-09-09T14:05:50;6.63;;;1.08;;
59040;SDS011;44825;53.200;6.448;2022-09-09T14:08:23;7.90;;;1.50;;
59040;SDS011;44825;53.200;6.448;2022-09-09T14:10:52;6.07;;;1.63;;
59040;SDS011;44825;53.200;6.448;2022-09-09T14:13:24;5.45;;;1.30;;
59040;SDS011;44825;53.200;6.448;2022-09-09T14:15:52;6.68;;;1.25;;
59040;SDS011;44825;53.200;6.448;2022-09-09T14:18:19;9.65;;;1.50;;
59040;SDS011;44825;53.200;6.448;2022-09-09T14:20:48;7.03;;;1.58;;
59040;SDS011;44825;53.200;6.448;2022-09-09T14:23:15;5.55;;;1.10;;
59040;SDS011;44825;53.200;6.448;2022-09-09T14:25:45;5.55;;;1.25;;
59040;SDS011;44825;53.200;6.448;2022-09-09T14:28:13;7.05;;;2.03;;
59040;SDS011;44825;53.200;6.448;2022-09-09T14:30:41;3.88;;;1.10;;
59040;SDS011;44825;53.200;6.448;2022-09-09T14:33:10;5.07;;;1.25;;
59040;SDS011;44825;53.200;6.448;2022-09-09T14:35:39;5.00;;;1.42;;
59040;SDS011;44825;53.200;6.448;2022-09-09T14:38:07;5.95;;;1.35;;
59040;SDS011;44825;53.200;6.448;2022-09-09T14:40:35;3.58;;;1.30;;
59040;SDS011;44825;53.200;6.448;2022-09-09T14:43:04;5.50;;;1.20;;
59040;SDS011;44825;53.200;6.448;2022-09-09T14:45:32;4.70;;;1.20;;
59040;SDS011;44825;53.200;6.448;2022-09-09T14:47:59;5.40;;;1.48;;
59040;SDS011;44825;53.200;6.448;2022-09-09T14:50:26;5.55;;;1.42;;
59040;SDS011;44825;53.200;6.448;2022-09-09T14:52:54;8.18;;;1.38;;
59040;SDS011;44825;53.200;6.448;2022-09-09T14:55:21;7.47;;;1.92;;
59040;SDS011;44825;53.200;6.448;2022-09-09T14:57:48;4.68;;;1.00;;
59040;SDS011;44825;53.200;6.448;2022-09-09T15:00:17;5.43;;;1.40;;
59040;SDS011;44825;53.200;6.448;2022-09-09T15:02:44;4.82;;;1.25;;
59040;SDS011;44825;53.200;6.448;2022-09-09T15:05:12;3.22;;;1.10;;
59040;SDS011;44825;53.200;6.448;2022-09-09T15:07:40;5.80;;;0.80;;
59040;SDS011;44825;53.200;6.448;2022-09-09T15:10:08;3.70;;;0.90;;
59040;SDS011;44825;53.200;6.448;2022-09-09T15:12:36;4.20;;;1.20;;
59040;SDS011;44825;53.200;6.448;2022-09-09T15:15:04;3.67;;;0.77;;
59040;SDS011;44825;53.200;6.448;2022-09-09T15:17:33;6.13;;;1.15;;
59040;SDS011;44825;53.200;6.448;2022-09-09T15:20:01;6.68;;;1.20;;